Time;durP1;ratioP1;P1;durP2;ratioP2;P2;SDS_P1;SDS_P2;PMS_P1;PMS_P2;Temp;Humidity;BMP_temperature;BMP_pressure;BME280_temperature;BME280_humidity;BME280_pressure;Samples;Min_cycle;Max_cycle;Signal;HPM_P1;HPM_P2
2023/12/24 00:00:31;;;;;;;1.45;0.30;;;;;;;11.82;100.00;99541.81;5045300;28;20049;-51
2023/12/24 00:02:58;;;;;;;0.20;0.20;;;;;;;11.83;100.00;99545.41;5022276;28;20080;-48
2023/12/24 00:05:27;;;;;;;0.38;0.20;;;;;;;11.84;100.00;99552.53;5044080;28;20434;-49
2023/12/24 00:07:55;;;;;;;0.73;0.45;;;;;;;11.83;100.00;99545.41;5044505;28;20052;-53
2023/12/24 00:10:22;;;;;;;0.30;0.10;;;;;;;11.85;100.00;99531.94;5051633;28;20059;-53
2023/12/24 00:12:50;;;;;;;0.22;0.22;;;;;;;11.85;100.00;99524.44;5044179;28;20606;-50
2023/12/24 00:15:17;;;;;;;0.55;0.40;;;;;;;11.86;100.00;99528.00;5043614;28;20045;-50
2023/12/24 00:17:44;;;;;;;1.30;0.40;;;;;;;11.85;100.00;99523.63;5042930;28;20037;-53
2023/12/24 00:20:12;;;;;;;0.57;0.10;;;;;;;11.86;100.00;99536.31;5041042;28;20057;-52
2023/12/24 00:22:40;;;;;;;0.85;0.10;;;;;;;11.86;100.00;99522.47;5045658;28;20049;-53
2023/12/24 00:25:07;;;;;;;0.10;0.10;;;;;;;11.87;100.00;99524.03;5021419;28;20407;-48
2023/12/24 00:27:34;;;;;;;0.40;0.20;;;;;;;11.86;100.00;99514.13;5037582;28;20132;-51
2023/12/24 00:30:02;;;;;;;0.82;0.28;;;;;;;11.87;100.00;99510.16;5044444;28;20045;-53
2023/12/24 00:32:29;;;;;;;0.38;0.20;;;;;;;11.86;100.00;99516.91;5042869;28;20045;-50
2023/12/24 00:34:56;;;;;;;0.15;0.10;;;;;;;11.85;100.00;99521.66;5043459;28;20694;-54
2023/12/24 00:37:24;;;;;;;0.70;0.15;;;;;;;11.87;100.00;99516.50;5042444;28;20056;-50
2023/12/24 00:39:51;;;;;;;0.28;0.25;;;;;;;11.86;100.00;99534.31;5046552;28;20045;-48
2023/12/24 00:42:18;;;;;;;0.17;0.17;;;;;;;11.88;100.00;99517.31;5047546;28;20045;-48
2023/12/24 00:44:45;;;;;;;0.10;0.10;;;;;;;11.88;100.00;99522.88;5028860;28;20053;-52
2023/12/24 00:47:13;;;;;;;0.35;0.20;;;;;;;11.86;100.00;99511.38;5024954;28;20057;-51
2023/12/24 00:49:40;;;;;;;0.20;0.15;;;;;;;11.86;100.00;99516.91;5043362;28;20044;-54
2023/12/24 00:52:07;;;;;;;0.38;0.15;;;;;;;11.86;100.00;99508.59;5047527;28;20507;-49
2023/12/24 00:54:36;;;;;;;1.30;0.10;;;;;;;11.85;100.00;99495.91;5047570;28;20049;-48
2023/12/24 00:57:03;;;;;;;1.45;0.10;;;;;;;11.85;100.00;99493.13;5047310;28;20044;-48
2023/12/24 00:59:31;;;;;;;0.10;0.10;;;;;;;11.83;100.00;99474.09;5046949;28;20049;-52
2023/12/24 01:03:20;;;;;;;0.63;0.10;;;;;;;11.83;100.00;99478.84;5129119;27;19997;-49
2023/12/24 01:05:48;;;;;;;0.10;0.10;;;;;;;11.83;100.00;99495.50;5104902;28;20421;-48
2023/12/24 01:08:15;;;;;;;0.28;0.20;;;;;;;11.84;100.00;99497.06;5113148;28;20508;-44
2023/12/24 01:10:42;;;;;;;0.13;0.05;;;;;;;11.84;100.00;99497.88;5123426;28;20051;-49
2023/12/24 01:13:10;;;;;;;0.20;0.13;;;;;;;11.86;100.00;99498.28;5119691;28;20055;-47
2023/12/24 01:15:37;;;;;;;0.82;0.10;;;;;;;11.86;100.00;99484.41;5119944;28;20051;-51
2023/12/24 01:18:04;;;;;;;0.77;0.05;;;;;;;11.87;100.00;99472.16;5102599;28;20047;-51
2023/12/24 01:20:32;;;;;;;0.60;0.10;;;;;;;11.89;100.00;99477.28;5112069;28;20531;-47
2023/12/24 01:23:00;;;;;;;1.48;0.10;;;;;;;11.89;100.00;99482.84;5112371;28;20047;-50
2023/12/24 01:25:27;;;;;;;0.65;0.00;;;;;;;11.89;100.00;99478.09;5110124;28;20059;-48
2023/12/24 01:27:54;;;;;;;0.57;0.10;;;;;;;11.90;100.00;99484.44;5113354;28;20050;-52
2023/12/24 01:30:21;;;;;;;0.15;0.15;;;;;;;11.90;100.00;99474.16;5111503;28;20059;-52
2023/12/24 01:32:49;;;;;;;0.15;0.10;;;;;;;11.90;100.00;99468.59;5097824;28;20055;-47
2023/12/24 01:35:17;;;;;;;0.55;0.10;;;;;;;11.90;100.00;99474.16;5107036;28;20088;-52
2023/12/24 01:37:44;;;;;;;1.25;0.20;;;;;;;11.93;100.00;99478.94;5097071;28;20044;-52
2023/12/24 01:40:12;;;;;;;0.30;0.10;;;;;;;11.95;100.00;99461.88;5107253;28;20043;-49
2023/12/24 01:42:41;;;;;;;1.30;0.10;;;;;;;11.95;100.00;99478.53;5110056;28;20051;-47
2023/12/24 01:45:09;;;;;;;2.20;0.10;;;;;;;11.96;100.00;99471.81;5099693;28;20092;-50
2023/12/24 01:47:36;;;;;;;0.10;0.10;;;;;;;11.96;100.00;99478.16;5114619;28;20575;-49
2023/12/24 01:50:04;;;;;;;0.32;0.32;;;;;;;11.96;100.00;99466.28;5107946;28;20047;-55
2023/12/24 01:52:32;;;;;;;0.10;0.10;;;;;;;11.96;100.00;99478.16;5103814;28;20047;-53
2023/12/24 01:55:00;;;;;;;0.10;0.10;;;;;;;11.96;100.00;99463.50;5117822;28;20052;-49
2023/12/24 01:57:30;;;;;;;1.55;0.10;;;;;;;11.96;100.00;99463.50;5104321;28;20051;-49
2023/12/24 01:59:59;;;;;;;0.40;0.20;;;;;;;11.95;100.00;99459.13;5122525;28;20066;-51
2023/12/24 02:02:28;;;;;;;0.35;0.28;;;;;;;11.96;100.00;99460.72;5124290;28;20066;-50
2023/12/24 02:04:56;;;;;;;1.65;0.10;;;;;;;11.96;100.00;99455.19;5124458;27;20046;-47
2023/12/24 02:07:26;;;;;;;0.75;0.10;;;;;;;11.94;100.00;99444.44;5111970;27;20150;-52
2023/12/24 02:09:53;;;;;;;0.10;0.00;;;;;;;11.96;100.00;99449.63;5112989;28;20032;-50
2023/12/24 02:12:21;;;;;;;0.82;0.40;;;;;;;11.95;100.00;99442.47;5120537;27;20040;-50
2023/12/24 02:14:48;;;;;;;0.65;0.17;;;;;;;11.94;100.00;99441.69;5089346;28;20476;-54
2023/12/24 02:17:17;;;;;;;1.30;0.10;;;;;;;11.94;100.00;99447.22;5089764;28;20051;-48
2023/12/24 02:19:46;;;;;;;0.20;0.20;;;;;;;11.93;100.00;99440.09;5098392;28;20046;-54
2023/12/24 02:22:13;;;;;;;0.45;0.38;;;;;;;11.92;100.00;99446.81;5090070;28;20059;-51
2023/12/24 02:24:40;;;;;;;0.20;0.20;;;;;;;11.93;100.00;99467.03;5091190;28;20056;-52
2023/12/24 02:27:17;;;;;;;0.73;0.32;;;;;;;11.92;100.00;99443.25;5096967;28;20043;-53
2023/12/24 02:29:48;;;;;;;0.13;0.10;;;;;;;11.91;100.00;99441.66;5100088;28;20047;-51
2023/12/24 02:32:17;;;;;;;0.25;0.10;;;;;;;11.90;100.00;99434.53;5108064;27;20048;-51
2023/12/24 02:34:48;;;;;;;0.98;0.20;;;;;;;11.89;100.00;99449.56;5098729;28;20054;-49
2023/12/24 02:37:15;;;;;;;0.20;0.20;;;;;;;11.89;100.00;99438.47;5089869;28;20079;-52
2023/12/24 02:39:43;;;;;;;1.67;0.30;;;;;;;11.87;100.00;99430.53;5089878;28;20530;-50
2023/12/24 02:42:11;;;;;;;0.52;0.10;;;;;;;11.89;100.00;99432.91;5089632;28;20552;-49
2023/12/24 02:44:39;;;;;;;0.68;0.68;;;;;;;11.87;100.00;99419.44;5107010;28;20048;-50
2023/12/24 02:47:06;;;;;;;0.65;0.10;;;;;;;11.87;100.00;99418.66;5110041;28;20047;-48
2023/12/24 02:49:33;;;;;;;0.20;0.15;;;;;;;11.86;100.00;99417.06;5096602;28;20059;-53
2023/12/24 02:52:01;;;;;;;1.60;0.20;;;;;;;11.86;100.00;99420.63;5089270;28;20055;-52
2023/12/24 02:54:28;;;;;;;1.85;0.30;;;;;;;11.85;100.00;99415.47;5090140;28;20044;-55
2023/12/24 02:56:55;;;;;;;1.17;0.10;;;;;;;11.85;100.00;99410.72;5090170;27;20059;-48
2023/12/24 02:59:25;;;;;;;0.20;0.10;;;;;;;11.85;100.00;99410.72;5103064;28;20047;-52
2023/12/24 03:01:52;;;;;;;2.25;0.20;;;;;;;11.84;100.00;99411.91;5149023;22;20052;-50
2023/12/24 03:04:20;;;;;;;0.35;0.22;;;;;;;11.84;100.00;99398.03;5069704;28;20052;-50
2023/12/24 03:06:47;;;;;;;1.00;0.20;;;;;;;11.83;100.00;99398.44;5057926;28;20048;-49
2023/12/24 03:09:14;;;;;;;1.48;0.10;;;;;;;11.83;100.00;99385.38;5070064;28;20064;-52
2023/12/24 03:11:42;;;;;;;1.33;0.40;;;;;;;11.84;100.00;99391.69;5070077;28;20045;-51
2023/12/24 03:14:10;;;;;;;0.80;0.25;;;;;;;11.83;100.00;99379.03;5070503;28;20055;-52
2023/12/24 03:16:37;;;;;;;1.05;0.45;;;;;;;11.83;100.00;99373.47;5069806;28;20048;-52
2023/12/24 03:19:04;;;;;;;0.45;0.20;;;;;;;11.82;100.00;99399.59;5069303;28;20406;-50
2023/12/24 03:21:32;;;;;;;0.30;0.30;;;;;;;11.82;100.00;99391.28;5069759;28;20045;-51
2023/12/24 03:23:59;;;;;;;0.30;0.30;;;;;;;11.82;100.00;99389.31;5069715;28;20044;-54
2023/12/24 03:26:26;;;;;;;0.93;0.25;;;;;;;11.82;100.00;99386.53;5067968;28;20056;-48
2023/12/24 03:28:54;;;;;;;0.63;0.30;;;;;;;11.82;100.00;99394.06;5057863;28;20098;-52
2023/12/24 03:31:25;;;;;;;2.70;0.30;;;;;;;11.83;100.00;99390.91;5069800;28;20060;-52
2023/12/24 03:33:53;;;;;;;0.20;0.17;;;;;;;11.84;100.00;99372.28;5064956;28;20057;-50
2023/12/24 03:36:21;;;;;;;0.13;0.10;;;;;;;11.85;100.00;99365.56;5067063;28;20055;-48
2023/12/24 03:38:48;;;;;;;0.25;0.25;;;;;;;11.86;100.00;99361.63;5068746;28;20422;-51
2023/12/24 03:41:16;;;;;;;1.65;0.20;;;;;;;11.85;100.00;99360.00;5068463;28;20399;-54
2023/12/24 03:43:43;;;;;;;0.75;0.20;;;;;;;11.87;100.00;99346.53;5068496;28;20405;-49
2023/12/24 03:46:10;;;;;;;0.75;0.15;;;;;;;11.87;100.00;99368.72;5068980;28;20059;-49
2023/12/24 03:48:38;;;;;;;0.30;0.20;;;;;;;11.88;100.00;99359.25;5050438;28;20042;-53
2023/12/24 03:51:05;;;;;;;0.43;0.10;;;;;;;11.89;100.00;99366.34;5068750;28;20033;-52
2023/12/24 03:53:32;;;;;;;0.73;0.20;;;;;;;11.89;100.00;99347.75;5068759;28;20048;-49
2023/12/24 03:56:01;;;;;;;0.20;0.20;;;;;;;11.89;100.00;99361.63;5068661;28;20057;-52
2023/12/24 03:58:28;;;;;;;0.40;0.38;;;;;;;11.89;100.00;99350.53;5068532;28;20048;-53
2023/12/24 04:00:56;;;;;;;0.20;0.20;;;;;;;11.89;100.00;99344.97;5068461;28;20044;-53
2023/12/24 04:03:23;;;;;;;0.43;0.08;;;;;;;11.89;100.00;99333.06;5068128;28;20815;-51
2023/12/24 04:05:51;;;;;;;0.00;0.00;;;;;;;11.89;100.00;99328.34;5068999;28;20040;-52
2023/12/24 04:08:18;;;;;;;0.52;0.20;;;;;;;11.88;100.00;99320.41;5068207;28;20064;-47
2023/12/24 04:10:45;;;;;;;0.55;0.10;;;;;;;11.90;100.00;99327.16;5066883;28;20052;-54
2023/12/24 04:13:13;;;;;;;0.60;0.13;;;;;;;11.90;100.00;99329.94;5061117;28;20056;-53
2023/12/24 04:15:40;;;;;;;0.10;0.10;;;;;;;11.92;100.00;99313.69;5067917;28;20473;-54
2023/12/24 04:18:07;;;;;;;0.00;0.00;;;;;;;11.93;100.00;99312.53;5068673;28;20052;-54
2023/12/24 04:20:35;;;;;;;1.27;0.05;;;;;;;11.94;100.00;99303.00;5050478;28;20036;-54
2023/12/24 04:23:03;;;;;;;0.08;0.00;;;;;;;11.95;100.00;99293.50;5067739;28;20060;-49
2023/12/24 04:25:30;;;;;;;0.28;0.03;;;;;;;11.96;100.00;99286.78;5068024;28;20059;-52
2023/12/24 04:27:57;;;;;;;0.32;0.10;;;;;;;11.95;100.00;99270.53;5068201;28;20032;-54
2023/12/24 04:30:25;;;;;;;0.00;0.00;;;;;;;11.95;100.00;99271.31;5067212;28;20079;-52
2023/12/24 04:32:52;;;;;;;0.38;0.00;;;;;;;11.96;100.00;99272.91;5050136;28;20045;-51
2023/12/24 04:35:20;;;;;;;0.73;0.65;;;;;;;11.98;100.00;99283.59;5062901;28;20044;-50
2023/12/24 04:37:47;;;;;;;1.27;0.00;;;;;;;11.98;100.00;99276.09;5067489;28;20052;-47
2023/12/24 04:40:15;;;;;;;1.15;0.00;;;;;;;11.98;100.00;99292.72;5064173;28;20052;-51
2023/12/24 04:42:42;;;;;;;0.20;0.00;;;;;;;11.99;100.00;99283.22;5062478;28;20045;-50
2023/12/24 04:45:09;;;;;;;0.10;0.10;;;;;;;11.98;100.00;99275.28;5067465;28;20083;-53
2023/12/24 04:47:37;;;;;;;1.30;0.00;;;;;;;12.00;100.00;99281.22;5068218;28;20045;-52
2023/12/24 04:50:06;;;;;;;0.13;0.10;;;;;;;12.01;100.00;99285.59;5067753;28;20041;-53
2023/12/24 04:52:35;;;;;;;0.00;0.00;;;;;;;12.02;100.00;99292.75;5068471;28;20071;-51
2023/12/24 04:55:04;;;;;;;0.00;0.00;;;;;;;12.03;100.00;99299.88;5067505;28;20398;-52
2023/12/24 04:57:32;;;;;;;1.27;0.10;;;;;;;12.02;100.00;99298.31;5067311;28;20059;-49
2023/12/24 04:59:59;;;;;;;1.35;0.10;;;;;;;12.03;100.00;99288.78;5049744;28;20038;-52
2023/12/24 05:02:26;;;;;;;0.03;0.03;;;;;;;12.02;100.00;99298.31;5068303;28;20064;-49
2023/12/24 05:04:55;;;;;;;0.08;0.08;;;;;;;12.02;100.00;99287.22;5067630;28;20072;-51
2023/12/24 05:07:22;;;;;;;0.30;0.08;;;;;;;12.01;100.00;99268.97;5068035;28;20036;-52
2023/12/24 05:09:50;;;;;;;0.10;0.10;;;;;;;11.98;100.00;99261.41;5067651;28;20429;-47
2023/12/24 05:12:18;;;;;;;0.05;0.00;;;;;;;11.97;100.00;99260.63;5068099;28;20048;-52
2023/12/24 05:14:45;;;;;;;0.10;0.00;;;;;;;11.96;100.00;99253.50;5049957;28;20053;-53
2023/12/24 05:17:12;;;;;;;0.30;0.00;;;;;;;11.93;100.00;99251.50;5067242;28;20053;-53
2023/12/24 05:19:40;;;;;;;0.03;0.00;;;;;;;11.93;100.00;99239.63;5068063;28;20051;-51
2023/12/24 05:22:07;;;;;;;0.30;0.10;;;;;;;11.92;100.00;99238.00;5066514;28;20040;-53
2023/12/24 05:24:34;;;;;;;0.38;0.10;;;;;;;11.90;100.00;99240.38;5067824;28;20048;-51
2023/12/24 05:27:02;;;;;;;0.05;0.00;;;;;;;11.89;100.00;99227.69;5067461;28;20387;-51
2023/12/24 05:29:29;;;;;;;0.00;0.00;;;;;;;11.87;100.00;99224.53;5067717;28;20644;-52
2023/12/24 05:31:58;;;;;;;0.10;0.00;;;;;;;11.88;100.00;99226.94;5067981;28;20052;-49
2023/12/24 05:34:26;;;;;;;0.10;0.10;;;;;;;11.89;100.00;99211.06;5067796;28;20092;-49
2023/12/24 05:36:54;;;;;;;0.65;0.10;;;;;;;11.87;100.00;99236.41;5064641;28;20401;-49
2023/12/24 05:39:21;;;;;;;0.90;0.15;;;;;;;11.90;100.00;99213.47;5039777;28;20405;-54
2023/12/24 05:41:48;;;;;;;0.10;0.00;;;;;;;11.92;100.00;99216.63;5067295;28;20051;-50
2023/12/24 05:44:16;;;;;;;0.10;0.10;;;;;;;11.94;100.00;99224.56;5067700;28;20085;-50
2023/12/24 05:46:43;;;;;;;0.60;0.00;;;;;;;11.95;100.00;99231.69;5063914;28;20049;-54
2023/12/24 05:49:10;;;;;;;0.15;0.03;;;;;;;11.96;100.00;99224.97;5060637;28;20055;-51
2023/12/24 05:51:38;;;;;;;1.48;0.20;;;;;;;11.97;100.00;99218.22;5071686;28;20477;-53
2023/12/24 05:54:05;;;;;;;0.32;0.10;;;;;;;11.97;100.00;99202.38;5071578;28;20052;-53
2023/12/24 05:56:32;;;;;;;0.40;0.00;;;;;;;11.98;100.00;99208.72;5069648;28;20037;-51
2023/12/24 05:59:00;;;;;;;0.00;0.00;;;;;;;11.98;100.00;99197.63;5071371;28;20063;-53
2023/12/24 06:01:27;;;;;;;0.00;0.00;;;;;;;12.00;100.00;99200.78;5071499;28;20048;-53
2023/12/24 06:03:55;;;;;;;0.10;0.00;;;;;;;11.99;100.00;99194.44;5071456;28;20418;-51
2023/12/24 06:06:22;;;;;;;0.00;0.00;;;;;;;11.98;100.00;99164.34;5071079;28;20037;-51
2023/12/24 06:08:49;;;;;;;0.22;0.00;;;;;;;11.99;100.00;99183.34;5070861;28;20056;-54
2023/12/24 06:11:17;;;;;;;0.13;0.00;;;;;;;11.98;100.00;99159.59;5071081;28;20406;-51
2023/12/24 06:13:45;;;;;;;0.75;0.00;;;;;;;11.98;100.00;99167.91;5070656;28;20056;-52
2023/12/24 06:16:13;;;;;;;1.05;0.00;;;;;;;11.99;100.00;99154.84;5070760;28;20525;-49
2023/12/24 06:18:40;;;;;;;0.25;0.03;;;;;;;11.98;100.00;99156.81;5070770;28;20417;-53
2023/12/24 06:21:09;;;;;;;0.00;0.00;;;;;;;11.99;100.00;99154.84;5070892;28;20063;-50
2023/12/24 06:23:36;;;;;;;0.00;0.00;;;;;;;12.00;100.00;99157.22;5070443;28;20049;-47
2023/12/24 06:26:04;;;;;;;0.00;0.00;;;;;;;12.00;100.00;99165.53;5070543;28;20059;-51
2023/12/24 06:28:31;;;;;;;0.00;0.00;;;;;;;12.00;100.00;99140.56;5070664;28;20066;-52
2023/12/24 06:30:59;;;;;;;0.00;0.00;;;;;;;12.01;100.00;99144.16;5064152;28;20045;-50
2023/12/24 06:33:27;;;;;;;0.45;0.00;;;;;;;12.02;100.00;99154.06;5064533;28;20379;-52
2023/12/24 06:35:54;;;;;;;0.00;0.00;;;;;;;12.00;100.00;99135.03;5070099;28;20406;-54
2023/12/24 06:38:22;;;;;;;0.00;0.00;;;;;;;12.01;100.00;99136.63;5070545;28;20044;-47
2023/12/24 06:40:49;;;;;;;0.00;0.00;;;;;;;12.00;100.00;99140.56;5070686;28;20532;-50
2023/12/24 06:43:16;;;;;;;0.82;0.00;;;;;;;12.01;100.00;99141.38;5070685;28;20051;-54
2023/12/24 06:45:44;;;;;;;0.00;0.00;;;;;;;12.01;100.00;99138.59;5070543;28;20056;-51
2023/12/24 06:48:11;;;;;;;0.00;0.00;;;;;;;12.00;100.00;99151.66;5070135;28;20667;-49
2023/12/24 06:50:39;;;;;;;0.63;0.10;;;;;;;12.00;100.00;99148.91;5069898;28;20410;-47
2023/12/24 06:53:08;;;;;;;0.00;0.00;;;;;;;12.00;100.00;99150.88;5070794;28;20090;-52
2023/12/24 06:55:35;;;;;;;0.00;0.00;;;;;;;12.01;100.00;99144.16;5070697;28;20044;-49
2023/12/24 06:58:03;;;;;;;0.63;0.00;;;;;;;12.01;100.00;99139.41;5070143;28;20057;-51
2023/12/24 07:00:31;;;;;;;0.00;0.00;;;;;;;12.00;100.00;99161.97;5052749;28;20059;-55
2023/12/24 07:02:58;;;;;;;5.18;0.30;;;;;;;11.99;100.00;99141.75;5069980;28;20386;-51
2023/12/24 07:05:28;;;;;;;0.00;0.00;;;;;;;12.00;100.00;99142.56;5070327;28;20062;-50
2023/12/24 07:07:55;;;;;;;0.00;0.00;;;;;;;11.99;100.00;99132.66;5069633;28;20045;-47
2023/12/24 07:10:22;;;;;;;0.00;0.00;;;;;;;12.00;100.00;99120.38;5061698;28;20049;-53
2023/12/24 07:12:50;;;;;;;0.08;0.00;;;;;;;12.00;100.00;99118.38;5069725;28;20052;-50
2023/12/24 07:15:17;;;;;;;0.00;0.00;;;;;;;11.98;100.00;99126.31;5070245;28;20052;-50
2023/12/24 07:17:45;;;;;;;0.00;0.00;;;;;;;11.99;100.00;99138.22;5069731;28;20047;-52
2023/12/24 07:20:12;;;;;;;0.00;0.00;;;;;;;11.98;100.00;99131.06;5069759;28;20063;-52
2023/12/24 07:22:39;;;;;;;0.13;0.00;;;;;;;11.97;100.00;99141.34;5069247;28;20044;-52
2023/12/24 07:25:07;;;;;;;0.00;0.00;;;;;;;11.97;100.00;99132.25;5057652;28;20052;-50
2023/12/24 07:27:35;;;;;;;0.57;0.00;;;;;;;11.97;100.00;99121.94;5067950;28;20063;-53
2023/12/24 07:30:03;;;;;;;0.20;0.05;;;;;;;11.98;100.00;99137.41;5069648;28;20048;-54
2023/12/24 07:32:30;;;;;;;0.00;0.00;;;;;;;11.97;100.00;99129.47;5056382;28;20049;-52
2023/12/24 07:34:58;;;;;;;0.10;0.00;;;;;;;11.97;100.00;99110.06;5069422;28;20044;-52
2023/12/24 07:37:25;;;;;;;0.10;0.10;;;;;;;11.97;100.00;99124.72;5069482;28;20377;-47
2023/12/24 07:39:53;;;;;;;0.00;0.00;;;;;;;11.97;100.00;99123.91;5069589;28;20049;-52
2023/12/24 07:42:20;;;;;;;0.38;0.00;;;;;;;11.97;100.00;99123.91;5069559;28;20405;-52
2023/12/24 07:44:48;;;;;;;0.00;0.00;;;;;;;11.97;100.00;99132.25;5068846;28;20405;-53
2023/12/24 07:47:15;;;;;;;0.00;0.00;;;;;;;11.96;100.00;99144.53;5069364;28;20047;-52
2023/12/24 07:49:42;;;;;;;0.15;0.10;;;;;;;11.96;100.00;99139.00;5069091;28;20048;-54
2023/12/24 07:52:10;;;;;;;0.10;0.05;;;;;;;11.96;100.00;99155.63;5060784;28;20041;-50
2023/12/24 07:54:37;;;;;;;0.47;0.10;;;;;;;11.98;100.00;99131.06;5064741;28;20055;-52
2023/12/24 07:57:05;;;;;;;0.00;0.00;;;;;;;11.97;100.00;99137.78;5069211;28;20498;-52
2023/12/24 07:59:32;;;;;;;0.43;0.00;;;;;;;11.96;100.00;99128.69;5068760;28;20048;-53
2023/12/24 08:02:00;;;;;;;0.00;0.00;;;;;;;11.97;100.00;99146.09;5069087;28;20109;-53
2023/12/24 08:04:28;;;;;;;0.00;0.00;;;;;;;11.97;100.00;99135.81;5068913;28;20041;-52
2023/12/24 08:06:55;;;;;;;0.22;0.00;;;;;;;11.97;100.00;99151.66;5068878;28;20048;-53
2023/12/24 08:09:23;;;;;;;0.70;0.00;;;;;;;11.98;100.00;99142.16;5068656;28;20233;-52
2023/12/24 08:11:51;;;;;;;0.70;0.10;;;;;;;11.99;100.00;99143.75;5067677;28;20087;-53
2023/12/24 08:14:18;;;;;;;0.20;0.08;;;;;;;11.98;100.00;99142.16;5068661;28;20410;-51
2023/12/24 08:16:45;;;;;;;0.00;0.00;;;;;;;11.98;100.00;99131.06;5068607;28;20063;-54
2023/12/24 08:19:12;;;;;;;0.00;0.00;;;;;;;11.99;100.00;99143.75;5068645;28;21548;-53
2023/12/24 08:21:40;;;;;;;0.60;0.05;;;;;;;11.98;100.00;99167.13;5068413;28;20045;-49
2023/12/24 08:24:08;;;;;;;0.38;0.05;;;;;;;11.97;100.00;99118.38;5068497;28;20074;-52
2023/12/24 08:26:36;;;;;;;0.10;0.10;;;;;;;11.97;100.00;99121.16;5068802;28;20099;-51
2023/12/24 08:29:03;;;;;;;0.00;0.00;;;;;;;11.97;100.00;99140.56;5068349;28;20052;-53
2023/12/24 08:31:31;;;;;;;0.85;0.08;;;;;;;11.96;100.00;99144.53;5068578;28;20052;-54
2023/12/24 08:33:58;;;;;;;0.00;0.00;;;;;;;11.96;100.00;99139.00;5064091;28;20045;-50
2023/12/24 08:36:25;;;;;;;0.10;0.00;;;;;;;11.96;100.00;99127.91;5068690;28;20048;-56
2023/12/24 08:38:53;;;;;;;0.75;0.00;;;;;;;11.96;100.00;99119.59;5068188;28;20044;-55
2023/12/24 08:41:20;;;;;;;0.00;0.00;;;;;;;11.94;100.00;99135.81;5068472;28;20078;-53
2023/12/24 08:43:48;;;;;;;0.30;0.10;;;;;;;11.94;100.00;99130.28;5067598;28;20052;-50
2023/12/24 08:46:15;;;;;;;0.20;0.08;;;;;;;11.93;100.00;99112.84;5067710;28;20060;-51
2023/12/24 08:48:42;;;;;;;0.03;0.00;;;;;;;11.93;100.00;99125.91;5053257;28;20144;-53
2023/12/24 08:51:10;;;;;;;0.35;0.00;;;;;;;11.92;100.00;99104.91;5058493;28;20051;-50
2023/12/24 08:53:37;;;;;;;0.55;0.20;;;;;;;11.91;100.00;99119.97;5067165;28;20079;-53
2023/12/24 08:56:05;;;;;;;0.90;0.10;;;;;;;11.90;100.00;99124.72;5068190;28;20060;-53
2023/12/24 08:58:32;;;;;;;0.10;0.10;;;;;;;11.91;100.00;99126.31;5054716;28;20049;-48
2023/12/24 09:00:59;;;;;;;0.40;0.10;;;;;;;11.90;100.00;99118.38;5068245;28;20061;-50
2023/12/24 09:03:28;;;;;;;0.00;0.00;;;;;;;11.90;100.00;99123.91;5068289;28;20041;-52
2023/12/24 09:05:55;;;;;;;0.00;0.00;;;;;;;11.91;100.00;99131.06;5068489;28;20056;-51
2023/12/24 09:08:23;;;;;;;0.20;0.20;;;;;;;11.90;100.00;99135.00;5068208;28;20421;-49
2023/12/24 09:10:50;;;;;;;0.10;0.10;;;;;;;11.90;100.00;99146.91;5068280;28;20062;-50
2023/12/24 09:13:17;;;;;;;0.75;0.10;;;;;;;11.90;100.00;99132.25;5067114;28;20057;-52
2023/12/24 09:15:49;;;;;;;0.20;0.10;;;;;;;11.91;100.00;99119.97;5067048;28;20053;-52
2023/12/24 09:18:16;;;;;;;0.10;0.10;;;;;;;11.89;100.00;99103.72;5046451;28;20040;-52
2023/12/24 09:20:43;;;;;;;0.08;0.08;;;;;;;11.90;100.00;99112.81;5065921;28;20051;-50
2023/12/24 09:23:11;;;;;;;0.40;0.40;;;;;;;11.91;100.00;99108.88;5050011;28;20049;-52
2023/12/24 09:25:38;;;;;;;0.08;0.08;;;;;;;11.91;100.00;99104.13;5058380;28;20060;-50
2023/12/24 09:28:06;;;;;;;0.20;0.20;;;;;;;11.92;100.00;99121.53;5071370;28;20127;-52
2023/12/24 09:30:33;;;;;;;0.25;0.00;;;;;;;11.93;100.00;99112.84;5070295;28;20056;-50
2023/12/24 09:33:02;;;;;;;0.20;0.20;;;;;;;11.94;100.00;99113.63;5071228;28;20048;-51
2023/12/24 09:35:30;;;;;;;0.10;0.03;;;;;;;11.95;100.00;99120.75;5070092;28;20044;-56
2023/12/24 09:37:57;;;;;;;0.08;0.00;;;;;;;11.96;100.00;99116.81;5071144;28;20037;-52
2023/12/24 09:40:24;;;;;;;0.22;0.10;;;;;;;11.97;100.00;99123.91;5071115;28;20402;-49
2023/12/24 09:42:53;;;;;;;0.90;0.10;;;;;;;11.98;100.00;99117.19;5064880;28;20403;-54
2023/12/24 09:45:21;;;;;;;0.32;0.10;;;;;;;11.99;100.00;99122.34;5071439;28;20751;-49
2023/12/24 09:47:49;;;;;;;1.88;0.65;;;;;;;11.99;100.00;99116.78;5062007;28;20052;-51
2023/12/24 09:50:16;;;;;;;0.30;0.15;;;;;;;12.01;100.00;99110.88;5071423;28;20048;-53
2023/12/24 09:52:45;;;;;;;0.10;0.10;;;;;;;12.03;100.00;99116.81;5071563;28;20462;-56
2023/12/24 09:55:12;;;;;;;0.32;0.32;;;;;;;12.03;100.00;99119.59;5066076;28;20045;-54
2023/12/24 09:57:40;;;;;;;0.32;0.10;;;;;;;12.03;100.00;99114.03;5068664;28;20067;-50
2023/12/24 10:00:09;;;;;;;0.10;0.10;;;;;;;12.04;100.00;99104.53;5071402;28;20033;-54
2023/12/24 10:02:37;;;;;;;0.10;0.10;;;;;;;12.03;100.00;99109.28;5068451;28;20056;-51
2023/12/24 10:05:04;;;;;;;0.05;0.00;;;;;;;12.04;100.00;99129.50;5070526;28;20060;-54
2023/12/24 10:07:39;;;;;;;0.20;0.20;;;;;;;12.04;100.00;99118.41;5070196;28;20048;-57
2023/12/24 10:10:11;;;;;;;0.10;0.10;;;;;;;12.05;100.00;99128.28;5070706;28;20040;-56
2023/12/24 10:12:38;;;;;;;1.00;0.28;;;;;;;12.04;100.00;99112.84;5069444;28;20049;-54
2023/12/24 10:15:06;;;;;;;1.10;0.73;;;;;;;12.06;100.00;99099.38;5070649;28;20041;-49
2023/12/24 10:17:35;;;;;;;0.73;0.28;;;;;;;12.07;100.00;99123.94;5070193;28;20044;-50
2023/12/24 10:20:06;;;;;;;1.17;0.10;;;;;;;12.09;100.00;99129.09;5071134;28;20075;-52
2023/12/24 10:22:35;;;;;;;0.45;0.45;;;;;;;12.10;100.00;99122.34;5070021;28;20052;-53
2023/12/24 10:25:07;;;;;;;0.25;0.10;;;;;;;12.11;100.00;99118.41;5070637;28;20044;-55
2023/12/24 10:27:35;;;;;;;0.65;0.22;;;;;;;12.11;100.00;99113.66;5052033;28;20052;-54
2023/12/24 10:30:10;;;;;;;0.98;0.20;;;;;;;12.12;100.00;99136.66;5070280;28;20040;-53
2023/12/24 10:32:47;;;;;;;0.10;0.00;;;;;;;12.12;100.00;99125.53;5058309;28;20127;-53
2023/12/24 10:35:22;;;;;;;0.65;0.20;;;;;;;12.14;100.00;99120.38;5068979;28;20053;-51
2023/12/24 10:37:50;;;;;;;0.28;0.10;;;;;;;12.15;100.00;99138.63;5062230;28;20063;-51
2023/12/24 10:40:17;;;;;;;0.50;0.10;;;;;;;12.17;100.00;99155.66;5057036;28;20048;-52
2023/12/24 10:42:44;;;;;;;1.10;0.10;;;;;;;12.20;100.00;99146.56;5069293;28;20041;-53
2023/12/24 10:45:12;;;;;;;0.50;0.10;;;;;;;12.26;100.00;99169.16;5069702;28;20064;-49
2023/12/24 10:47:40;;;;;;;0.10;0.10;;;;;;;12.28;100.00;99152.91;5069363;28;20051;-53
2023/12/24 10:50:08;;;;;;;0.35;0.15;;;;;;;12.32;100.00;99157.28;5066637;28;20049;-54
2023/12/24 10:52:35;;;;;;;0.55;0.10;;;;;;;12.33;100.00;99172.75;5069413;28;20051;-52
2023/12/24 10:55:03;;;;;;;0.22;0.20;;;;;;;12.34;100.00;99171.53;5070248;28;20037;-51
2023/12/24 10:57:56;;;;;;;0.20;0.20;;;;;;;12.34;100.00;99171.53;5070264;28;20056;-48
2023/12/24 11:00:24;;;;;;;0.80;0.60;;;;;;;12.36;100.00;99182.25;5053048;28;20051;-50
2023/12/24 11:02:52;;;;;;;0.43;0.30;;;;;;;12.34;100.00;99184.63;5069312;28;20060;-54
2023/12/24 11:05:48;;;;;;;0.77;0.60;;;;;;;12.27;100.00;99182.63;5070121;28;20052;-51
2023/12/24 11:08:21;;;;;;;0.55;0.20;;;;;;;12.24;100.00;99164.00;5069834;28;20418;-46
2023/12/24 11:11:03;;;;;;;0.55;0.50;;;;;;;12.28;100.00;99197.31;5070008;28;20056;-54
2023/12/24 11:13:34;;;;;;;0.40;0.32;;;;;;;12.25;100.00;99212.75;5070290;28;20383;-53
2023/12/24 11:16:04;;;;;;;0.40;0.40;;;;;;;12.25;100.00;99196.13;5068501;28;20075;-52
2023/12/24 11:18:45;;;;;;;0.98;0.30;;;;;;;12.24;100.00;99200.06;5069307;28;20045;-49
2023/12/24 11:21:19;;;;;;;0.28;0.20;;;;;;;12.21;100.00;99217.50;5068696;28;20418;-50
2023/12/24 11:24:08;;;;;;;0.10;0.10;;;;;;;12.15;100.00;99194.13;5069315;28;20045;-53
2023/12/24 11:26:36;;;;;;;0.47;0.20;;;;;;;12.13;100.00;99200.03;5061267;28;20040;-53
2023/12/24 11:29:52;;;;;;;0.20;0.20;;;;;;;12.08;100.00;99191.31;5069496;28;20048;-50